sensor_id;sensor_type;location;lat;lon;timestamp;pressure;altitude;pressure_sealevel;temperature;humidity
55757;BME280;41676;44.610;44.078;2023-12-14T00:03:23;101115.06;;;-4.45;100.00
55757;BME280;41676;44.610;44.078;2023-12-14T00:08:23;101081.97;;;-4.64;100.00
55757;BME280;41676;44.610;44.078;2023-12-14T00:13:24;101136.44;;;-4.39;100.00
55757;BME280;41676;44.610;44.078;2023-12-14T00:18:25;101147.66;;;-4.38;100.00
55757;BME280;41676;44.610;44.078;2023-12-14T00:23:26;101138.19;;;-4.39;100.00
55757;BME280;41676;44.610;44.078;2023-12-14T00:28:27;101097.34;;;-4.57;100.00
55757;BME280;41676;44.610;44.078;2023-12-14T00:33:27;101151.94;;;-4.37;100.00
55757;BME280;41676;44.610;44.078;2023-12-14T00:38:28;101149.19;;;-4.32;100.00
55757;BME280;41676;44.610;44.078;2023-12-14T00:43:29;101068.97;;;-4.87;100.00
55757;BME280;41676;44.610;44.078;2023-12-14T00:48:30;101102.03;;;-4.69;100.00
55757;BME280;41676;44.610;44.078;2023-12-14T00:53:30;101143.94;;;-4.56;100.00
55757;BME280;41676;44.610;44.078;2023-12-14T00:58:31;101139.59;;;-4.55;100.00
55757;BME280;41676;44.610;44.078;2023-12-14T01:03:32;101132.72;;;-4.56;100.00
55757;BME280;41676;44.610;44.078;2023-12-14T01:08:33;101155.31;;;-4.35;100.00
55757;BME280;41676;44.610;44.078;2023-12-14T01:13:33;101084.84;;;-4.71;100.00
55757;BME280;41676;44.610;44.078;2023-12-14T01:18:34;101155.50;;;-4.40;100.00
55757;BME280;41676;44.610;44.078;2023-12-14T01:23:35;101095.84;;;-4.65;100.00
55757;BME280;41676;44.610;44.078;2023-12-14T01:28:36;101107.84;;;-4.62;100.00
55757;BME280;41676;44.610;44.078;2023-12-14T01:33:36;101087.47;;;-4.73;100.00
55757;BME280;41676;44.610;44.078;2023-12-14T01:38:37;101143.69;;;-4.48;100.00
55757;BME280;41676;44.610;44.078;2023-12-14T01:43:38;101146.69;;;-4.36;100.00
55757;BME280;41676;44.610;44.078;2023-12-14T01:48:39;101147.53;;;-4.35;100.00
55757;BME280;41676;44.610;44.078;2023-12-14T01:53:40;101156.38;;;-4.41;100.00
55757;BME280;41676;44.610;44.078;2023-12-14T01:58:41;101151.25;;;-4.42;100.00
55757;BME280;41676;44.610;44.078;2023-12-14T02:03:46;101156.00;;;-4.55;100.00
55757;BME280;41676;44.610;44.078;2023-12-14T02:08:46;101156.41;;;-4.67;100.00
55757;BME280;41676;44.610;44.078;2023-12-14T02:13:47;101183.78;;;-4.59;100.00
55757;BME280;41676;44.610;44.078;2023-12-14T02:18:48;101182.59;;;-4.48;100.00
55757;BME280;41676;44.610;44.078;2023-12-14T02:23:49;101188.66;;;-4.49;100.00
55757;BME280;41676;44.610;44.078;2023-12-14T02:28:50;101181.81;;;-4.52;100.00
55757;BME280;41676;44.610;44.078;2023-12-14T02:33:50;101199.38;;;-4.33;100.00
55757;BME280;41676;44.610;44.078;2023-12-14T02:38:51;101187.78;;;-4.48;100.00
55757;BME280;41676;44.610;44.078;2023-12-14T02:43:52;101194.00;;;-4.54;100.00
55757;BME280;41676;44.610;44.078;2023-12-14T02:48:53;101171.22;;;-4.71;100.00
55757;BME280;41676;44.610;44.078;2023-12-14T02:53:53;101191.34;;;-4.52;100.00
55757;BME280;41676;44.610;44.078;2023-12-14T02:58:57;101214.84;;;-4.30;100.00
55757;BME280;41676;44.610;44.078;2023-12-14T03:03:58;101222.19;;;-4.18;100.00
55757;BME280;41676;44.610;44.078;2023-12-14T03:08:59;101199.75;;;-4.46;100.00
55757;BME280;41676;44.610;44.078;2023-12-14T03:14:00;101224.25;;;-4.28;100.00
55757;BME280;41676;44.610;44.078;2023-12-14T03:19:01;101192.25;;;-4.53;100.00
55757;BME280;41676;44.610;44.078;2023-12-14T03:24:02;101200.84;;;-4.51;100.00
55757;BME280;41676;44.610;44.078;2023-12-14T03:29:03;101223.06;;;-4.44;100.00
55757;BME280;41676;44.610;44.078;2023-12-14T03:34:04;101228.16;;;-4.41;100.00
55757;BME280;41676;44.610;44.078;2023-12-14T03:39:05;101264.25;;;-4.35;100.00
55757;BME280;41676;44.610;44.078;2023-12-14T03:44:06;101262.97;;;-4.22;100.00
55757;BME280;41676;44.610;44.078;2023-12-14T03:49:07;101274.31;;;-4.24;100.00
55757;BME280;41676;44.610;44.078;2023-12-14T03:54:09;101277.56;;;-4.19;100.00
55757;BME280;41676;44.610;44.078;2023-12-14T03:59:10;101275.59;;;-4.38;100.00
55757;BME280;41676;44.610;44.078;2023-12-14T04:04:11;101272.16;;;-4.38;100.00
55757;BME280;41676;44.610;44.078;2023-12-14T04:09:11;101252.00;;;-4.56;100.00
55757;BME280;41676;44.610;44.078;2023-12-14T04:14:12;101264.25;;;-4.62;100.00
55757;BME280;41676;44.610;44.078;2023-12-14T04:19:13;101267.38;;;-4.52;100.00
55757;BME280;41676;44.610;44.078;2023-12-14T04:24:14;101268.00;;;-4.44;100.00
55757;BME280;41676;44.610;44.078;2023-12-14T04:29:15;101274.34;;;-4.52;100.00
55757;BME280;41676;44.610;44.078;2023-12-14T04:34:15;101225.56;;;-4.68;100.00
55757;BME280;41676;44.610;44.078;2023-12-14T04:39:17;101265.00;;;-4.58;100.00
55757;BME280;41676;44.610;44.078;2023-12-14T04:44:19;101278.94;;;-4.61;100.00
55757;BME280;41676;44.610;44.078;2023-12-14T04:49:20;101281.03;;;-4.45;100.00
55757;BME280;41676;44.610;44.078;2023-12-14T04:54:21;101257.81;;;-4.50;100.00
55757;BME280;41676;44.610;44.078;2023-12-14T04:59:21;101268.81;;;-4.42;100.00
55757;BME280;41676;44.610;44.078;2023-12-14T05:04:22;101275.69;;;-4.41;100.00
55757;BME280;41676;44.610;44.078;2023-12-14T05:09:23;101285.44;;;-4.22;100.00
55757;BME280;41676;44.610;44.078;2023-12-14T05:14:24;101257.13;;;-4.28;100.00
55757;BME280;41676;44.610;44.078;2023-12-14T05:19:25;101282.13;;;-4.26;100.00
55757;BME280;41676;44.610;44.078;2023-12-14T05:24:26;101260.75;;;-4.34;100.00
55757;BME280;41676;44.610;44.078;2023-12-14T05:29:26;101208.47;;;-4.73;100.00
55757;BME280;41676;44.610;44.078;2023-12-14T05:34:27;101231.06;;;-4.50;100.00
55757;BME280;41676;44.610;44.078;2023-12-14T05:39:28;101242.16;;;-4.47;100.00
55757;BME280;41676;44.610;44.078;2023-12-14T05:44:29;101242.81;;;-4.40;100.00
55757;BME280;41676;44.610;44.078;2023-12-14T05:49:29;101296.28;;;-4.09;100.00
55757;BME280;41676;44.610;44.078;2023-12-14T05:54:30;101282.25;;;-4.04;100.00
55757;BME280;41676;44.610;44.078;2023-12-14T05:59:31;101237.09;;;-4.25;100.00
55757;BME280;41676;44.610;44.078;2023-12-14T06:04:32;101263.44;;;-4.10;100.00
55757;BME280;41676;44.610;44.078;2023-12-14T06:09:34;101299.00;;;-3.87;100.00
55757;BME280;41676;44.610;44.078;2023-12-14T06:14:35;101301.25;;;-3.77;100.00
55757;BME280;41676;44.610;44.078;2023-12-14T06:19:36;101293.13;;;-3.68;100.00
55757;BME280;41676;44.610;44.078;2023-12-14T06:24:36;101310.56;;;-3.46;100.00
55757;BME280;41676;44.610;44.078;2023-12-14T06:29:37;101285.75;;;-3.55;100.00
55757;BME280;41676;44.610;44.078;2023-12-14T06:34:39;101256.41;;;-3.82;100.00
55757;BME280;41676;44.610;44.078;2023-12-14T06:39:43;101307.63;;;-3.37;100.00
55757;BME280;41676;44.610;44.078;2023-12-14T06:44:44;101273.25;;;-3.45;100.00
55757;BME280;41676;44.610;44.078;2023-12-14T06:49:44;101320.97;;;-3.23;100.00
55757;BME280;41676;44.610;44.078;2023-12-14T06:54:45;101321.41;;;-3.35;100.00
55757;BME280;41676;44.610;44.078;2023-12-14T06:59:46;101318.56;;;-3.52;100.00
55757;BME280;41676;44.610;44.078;2023-12-14T07:04:46;101290.53;;;-3.44;100.00
55757;BME280;41676;44.610;44.078;2023-12-14T07:09:47;101301.16;;;-3.27;100.00
55757;BME280;41676;44.610;44.078;2023-12-14T07:14:49;101283.72;;;-3.23;100.00
55757;BME280;41676;44.610;44.078;2023-12-14T07:19:51;101293.91;;;-3.17;100.00
55757;BME280;41676;44.610;44.078;2023-12-14T07:24:52;101253.66;;;-3.54;100.00
55757;BME280;41676;44.610;44.078;2023-12-14T07:29:53;101256.34;;;-3.55;100.00
55757;BME280;41676;44.610;44.078;2023-12-14T07:34:53;101256.34;;;-3.55;100.00
55757;BME280;41676;44.610;44.078;2023-12-14T07:39:55;101313.94;;;-3.21;100.00
55757;BME280;41676;44.610;44.078;2023-12-14T07:44:56;101263.31;;;-3.57;100.00
55757;BME280;41676;44.610;44.078;2023-12-14T07:49:56;101264.56;;;-3.44;100.00
55757;BME280;41676;44.610;44.078;2023-12-14T07:54:57;101308.25;;;-3.07;100.00
55757;BME280;41676;44.610;44.078;2023-12-14T07:59:58;101289.09;;;-3.04;100.00
55757;BME280;41676;44.610;44.078;2023-12-14T08:04:59;101290.81;;;-2.81;100.00
55757;BME280;41676;44.610;44.078;2023-12-14T08:10:00;101263.69;;;-2.76;100.00
55757;BME280;41676;44.610;44.078;2023-12-14T08:15:00;101216.09;;;-3.00;100.00
55757;BME280;41676;44.610;44.078;2023-12-14T08:20:01;101262.44;;;-2.65;100.00
55757;BME280;41676;44.610;44.078;2023-12-14T08:25:05;101241.66;;;-2.65;100.00
55757;BME280;41676;44.610;44.078;2023-12-14T08:30:06;101229.78;;;-2.72;100.00
55757;BME280;41676;44.610;44.078;2023-12-14T08:35:07;101240.94;;;-2.69;100.00
55757;BME280;41676;44.610;44.078;2023-12-14T08:40:08;101190.59;;;-3.12;100.00
55757;BME280;41676;44.610;44.078;2023-12-14T08:45:10;101249.25;;;-2.83;100.00
55757;BME280;41676;44.610;44.078;2023-12-14T08:50:12;101195.75;;;-3.10;100.00
55757;BME280;41676;44.610;44.078;2023-12-14T08:55:13;101252.91;;;-2.87;100.00
55757;BME280;41676;44.610;44.078;2023-12-14T09:00:14;101248.91;;;-2.73;100.00
55757;BME280;41676;44.610;44.078;2023-12-14T09:05:15;101239.56;;;-2.79;100.00
55757;BME280;41676;44.610;44.078;2023-12-14T09:10:16;101240.19;;;-2.72;100.00
55757;BME280;41676;44.610;44.078;2023-12-14T09:15:17;101228.50;;;-2.62;100.00
55757;BME280;41676;44.610;44.078;2023-12-14T09:20:18;101175.22;;;-2.74;100.00
55757;BME280;41676;44.610;44.078;2023-12-14T09:25:20;101230.06;;;-2.36;100.00
55757;BME280;41676;44.610;44.078;2023-12-14T09:30:21;101207.50;;;-2.58;100.00
55757;BME280;41676;44.610;44.078;2023-12-14T09:35:21;101206.53;;;-2.55;100.00
55757;BME280;41676;44.610;44.078;2023-12-14T09:40:22;101167.56;;;-2.77;100.00
55757;BME280;41676;44.610;44.078;2023-12-14T09:45:27;101207.06;;;-2.47;100.00
55757;BME280;41676;44.610;44.078;2023-12-14T09:50:30;101190.63;;;-2.47;100.00
55757;BME280;41676;44.610;44.078;2023-12-14T09:55:32;101200.44;;;-2.34;100.00
55757;BME280;41676;44.610;44.078;2023-12-14T10:00:37;101199.19;;;-2.25;100.00
55757;BME280;41676;44.610;44.078;2023-12-14T10:05:38;101178.16;;;-2.39;100.00
55757;BME280;41676;44.610;44.078;2023-12-14T10:10:40;101197.56;;;-2.27;100.00
55757;BME280;41676;44.610;44.078;2023-12-14T10:15:42;101180.66;;;-2.38;100.00
55757;BME280;41676;44.610;44.078;2023-12-14T10:20:43;101168.63;;;-2.40;100.00
55757;BME280;41676;44.610;44.078;2023-12-14T10:25:46;101174.63;;;-2.38;100.00
55757;BME280;41676;44.610;44.078;2023-12-14T10:30:46;101163.28;;;-2.37;100.00
55757;BME280;41676;44.610;44.078;2023-12-14T10:35:47;101145.03;;;-2.36;100.00
55757;BME280;41676;44.610;44.078;2023-12-14T10:40:49;101134.47;;;-2.33;100.00
55757;BME280;41676;44.610;44.078;2023-12-14T10:45:50;101124.34;;;-2.39;100.00
55757;BME280;41676;44.610;44.078;2023-12-14T10:50:55;101138.09;;;-2.37;100.00
55757;BME280;41676;44.610;44.078;2023-12-14T10:55:57;101130.13;;;-2.32;100.00
55757;BME280;41676;44.610;44.078;2023-12-14T11:01:01;101137.53;;;-2.43;100.00
55757;BME280;41676;44.610;44.078;2023-12-14T11:06:02;101123.69;;;-2.44;100.00
55757;BME280;41676;44.610;44.078;2023-12-14T11:11:05;101102.53;;;-2.36;100.00
55757;BME280;41676;44.610;44.078;2023-12-14T11:16:14;101098.06;;;-2.53;100.00
55757;BME280;41676;44.610;44.078;2023-12-14T11:21:18;101136.94;;;-2.50;100.00
55757;BME280;41676;44.610;44.078;2023-12-14T11:26:25;101095.59;;;-2.77;100.00
55757;BME280;41676;44.610;44.078;2023-12-14T11:31:27;101181.81;;;-2.24;100.00
55757;BME280;41676;44.610;44.078;2023-12-14T11:36:29;101195.84;;;-2.27;100.00
55757;BME280;41676;44.610;44.078;2023-12-14T11:41:30;101202.47;;;-2.20;100.00
55757;BME280;41676;44.610;44.078;2023-12-14T11:46:31;101212.47;;;-2.11;100.00
55757;BME280;41676;44.610;44.078;2023-12-14T11:51:33;101158.44;;;-2.45;100.00
55757;BME280;41676;44.610;44.078;2023-12-14T11:56:34;101223.22;;;-2.18;100.00
55757;BME280;41676;44.610;44.078;2023-12-14T12:01:35;101212.34;;;-2.08;100.00
55757;BME280;41676;44.610;44.078;2023-12-14T12:06:36;101217.69;;;-2.11;100.00
55757;BME280;41676;44.610;44.078;2023-12-14T12:11:37;101224.25;;;-2.22;100.00
55757;BME280;41676;44.610;44.078;2023-12-14T12:16:37;101210.72;;;-2.31;100.00
55757;BME280;41676;44.610;44.078;2023-12-14T12:21:39;101168.56;;;-2.59;100.00
55757;BME280;41676;44.610;44.078;2023-12-14T12:26:40;101216.97;;;-2.35;100.00
55757;BME280;41676;44.610;44.078;2023-12-14T12:31:41;101216.50;;;-2.44;100.00
55757;BME280;41676;44.610;44.078;2023-12-14T12:36:43;101230.28;;;-2.42;100.00
55757;BME280;41676;44.610;44.078;2023-12-14T12:41:44;101242.19;;;-2.37;100.00
55757;BME280;41676;44.610;44.078;2023-12-14T12:46:44;101223.34;;;-2.42;100.00
55757;BME280;41676;44.610;44.078;2023-12-14T12:51:45;101234.59;;;-2.41;100.00
55757;BME280;41676;44.610;44.078;2023-12-14T12:56:46;101245.00;;;-2.41;100.00
55757;BME280;41676;44.610;44.078;2023-12-14T13:01:47;101264.84;;;-2.39;100.00
55757;BME280;41676;44.610;44.078;2023-12-14T13:06:49;101270.31;;;-2.45;100.00
55757;BME280;41676;44.610;44.078;2023-12-14T13:11:50;101252.88;;;-2.65;100.00
55757;BME280;41676;44.610;44.078;2023-12-14T13:16:51;101298.81;;;-2.42;100.00
55757;BME280;41676;44.610;44.078;2023-12-14T13:21:52;101279.66;;;-2.41;100.00
55757;BME280;41676;44.610;44.078;2023-12-14T13:26:53;101270.56;;;-2.51;100.00
55757;BME280;41676;44.610;44.078;2023-12-14T13:31:54;101295.03;;;-2.35;100.00
55757;BME280;41676;44.610;44.078;2023-12-14T13:36:55;101302.84;;;-2.35;100.00
55757;BME280;41676;44.610;44.078;2023-12-14T13:41:56;101248.53;;;-2.64;100.00
55757;BME280;41676;44.610;44.078;2023-12-14T13:46:57;101302.13;;;-2.38;100.00
55757;BME280;41676;44.610;44.078;2023-12-14T13:51:58;101236.94;;;-2.78;100.00
55757;BME280;41676;44.610;44.078;2023-12-14T13:56:59;101285.53;;;-2.58;100.00
55757;BME280;41676;44.610;44.078;2023-12-14T14:01:59;101247.69;;;-2.87;100.00
55757;BME280;41676;44.610;44.078;2023-12-14T14:07:00;101302.19;;;-2.62;100.00
55757;BME280;41676;44.610;44.078;2023-12-14T14:12:01;101307.16;;;-2.56;100.00
55757;BME280;41676;44.610;44.078;2023-12-14T14:17:02;101310.91;;;-2.63;100.00
55757;BME280;41676;44.610;44.078;2023-12-14T14:22:02;101298.97;;;-2.68;100.00
55757;BME280;41676;44.610;44.078;2023-12-14T14:27:04;101305.19;;;-2.72;100.00
55757;BME280;41676;44.610;44.078;2023-12-14T14:32:05;101291.59;;;-2.79;100.00
55757;BME280;41676;44.610;44.078;2023-12-14T14:37:06;101301.16;;;-2.80;100.00
55757;BME280;41676;44.610;44.078;2023-12-14T14:42:07;101307.31;;;-2.82;100.00
55757;BME280;41676;44.610;44.078;2023-12-14T14:47:08;101288.75;;;-2.95;100.00
55757;BME280;41676;44.610;44.078;2023-12-14T14:52:09;101294.78;;;-2.94;100.00
55757;BME280;41676;44.610;44.078;2023-12-14T14:57:12;101283.94;;;-3.06;100.00
55757;BME280;41676;44.610;44.078;2023-12-14T15:02:13;101304.00;;;-3.09;100.00
55757;BME280;41676;44.610;44.078;2023-12-14T15:07:14;101280.34;;;-3.25;100.00
55757;BME280;41676;44.610;44.078;2023-12-14T15:12:15;101303.50;;;-3.19;100.00
55757;BME280;41676;44.610;44.078;2023-12-14T15:17:15;101285.69;;;-3.30;100.00
55757;BME280;41676;44.610;44.078;2023-12-14T15:22:19;101215.44;;;-3.74;100.00
55757;BME280;41676;44.610;44.078;2023-12-14T15:27:20;101217.03;;;-3.70;100.00
55757;BME280;41676;44.610;44.078;2023-12-14T15:32:22;101260.28;;;-3.45;100.00
55757;BME280;41676;44.610;44.078;2023-12-14T15:37:23;101271.13;;;-3.34;100.00
55757;BME280;41676;44.610;44.078;2023-12-14T15:42:23;101229.75;;;-3.62;100.00
55757;BME280;41676;44.610;44.078;2023-12-14T15:47:24;101273.38;;;-3.25;100.00
55757;BME280;41676;44.610;44.078;2023-12-14T15:52:25;101222.50;;;-3.54;100.00
55757;BME280;41676;44.610;44.078;2023-12-14T15:57:28;101284.13;;;-3.10;100.00
55757;BME280;41676;44.610;44.078;2023-12-14T16:02:30;101272.69;;;-3.06;100.00
55757;BME280;41676;44.610;44.078;2023-12-14T16:07:31;101273.41;;;-3.03;100.00
55757;BME280;41676;44.610;44.078;2023-12-14T16:12:32;101271.91;;;-3.08;100.00
55757;BME280;41676;44.610;44.078;2023-12-14T16:17:34;101279.28;;;-2.97;100.00
55757;BME280;41676;44.610;44.078;2023-12-14T16:22:35;101288.50;;;-2.89;100.00
55757;BME280;41676;44.610;44.078;2023-12-14T16:27:37;101290.88;;;-2.83;100.00
55757;BME280;41676;44.610;44.078;2023-12-14T16:32:38;101283.97;;;-2.84;100.00
55757;BME280;41676;44.610;44.078;2023-12-14T16:37:39;101275.88;;;-2.76;100.00
55757;BME280;41676;44.610;44.078;2023-12-14T16:42:40;101283.75;;;-2.78;100.00
55757;BME280;41676;44.610;44.078;2023-12-14T16:47:42;101199.91;;;-3.06;100.00
55757;BME280;41676;44.610;44.078;2023-12-14T16:52:43;101265.69;;;-2.82;100.00
55757;BME280;41676;44.610;44.078;2023-12-14T16:57:45;101276.94;;;-2.82;100.00
55757;BME280;41676;44.610;44.078;2023-12-14T17:02:46;101280.63;;;-2.87;100.00
55757;BME280;41676;44.610;44.078;2023-12-14T17:07:49;101278.78;;;-2.84;100.00
55757;BME280;41676;44.610;44.078;2023-12-14T17:12:50;101268.50;;;-2.87;100.00
55757;BME280;41676;44.610;44.078;2023-12-14T17:17:52;101228.88;;;-3.15;100.00
55757;BME280;41676;44.610;44.078;2023-12-14T17:22:53;101268.66;;;-2.91;100.00
55757;BME280;41676;44.610;44.078;2023-12-14T17:27:54;101259.94;;;-2.90;100.00
55757;BME280;41676;44.610;44.078;2023-12-14T17:32:57;101257.69;;;-3.00;100.00
55757;BME280;41676;44.610;44.078;2023-12-14T17:37:58;101159.44;;;-3.57;100.00
55757;BME280;41676;44.610;44.078;2023-12-14T17:42:59;101261.09;;;-2.97;100.00
55757;BME280;41676;44.610;44.078;2023-12-14T17:48:00;101249.91;;;-3.00;100.00
55757;BME280;41676;44.610;44.078;2023-12-14T17:53:01;101256.88;;;-3.00;100.00
55757;BME280;41676;44.610;44.078;2023-12-14T17:58:03;101249.53;;;-3.12;100.00
55757;BME280;41676;44.610;44.078;2023-12-14T18:03:04;101230.66;;;-3.17;100.00
55757;BME280;41676;44.610;44.078;2023-12-14T18:08:05;101172.56;;;-3.38;100.00
55757;BME280;41676;44.610;44.078;2023-12-14T18:13:05;101223.16;;;-3.02;100.00
55757;BME280;41676;44.610;44.078;2023-12-14T18:18:06;101200.16;;;-3.12;100.00
55757;BME280;41676;44.610;44.078;2023-12-14T18:23:07;101205.84;;;-3.03;100.00
55757;BME280;41676;44.610;44.078;2023-12-14T18:28:08;101189.88;;;-3.15;100.00
55757;BME280;41676;44.610;44.078;2023-12-14T18:33:09;101189.88;;;-3.15;100.00
55757;BME280;41676;44.610;44.078;2023-12-14T18:38:12;101167.69;;;-3.24;100.00
55757;BME280;41676;44.610;44.078;2023-12-14T18:43:12;101166.69;;;-3.20;100.00
55757;BME280;41676;44.610;44.078;2023-12-14T18:48:14;101143.72;;;-3.31;100.00
55757;BME280;41676;44.610;44.078;2023-12-14T18:53:15;101155.06;;;-3.11;100.00
55757;BME280;41676;44.610;44.078;2023-12-14T18:58:16;101051.75;;;-3.71;100.00
55757;BME280;41676;44.610;44.078;2023-12-14T19:03:16;101150.78;;;-3.12;100.00
55757;BME280;41676;44.610;44.078;2023-12-14T19:08:17;101073.63;;;-3.54;100.00
55757;BME280;41676;44.610;44.078;2023-12-14T19:13:18;101112.94;;;-3.19;100.00
55757;BME280;41676;44.610;44.078;2023-12-14T19:18:19;101127.84;;;-3.03;100.00
55757;BME280;41676;44.610;44.078;2023-12-14T19:23:19;101108.28;;;-3.11;100.00
55757;BME280;41676;44.610;44.078;2023-12-14T19:28:20;101128.66;;;-3.01;100.00
55757;BME280;41676;44.610;44.078;2023-12-14T19:33:21;101120.13;;;-3.04;100.00
55757;BME280;41676;44.610;44.078;2023-12-14T19:38:22;101120.88;;;-3.02;100.00
55757;BME280;41676;44.610;44.078;2023-12-14T19:43:23;101114.81;;;-3.01;100.00
55757;BME280;41676;44.610;44.078;2023-12-14T19:48:23;101117.94;;;-2.93;100.00
55757;BME280;41676;44.610;44.078;2023-12-14T19:53:26;101120.34;;;-2.88;100.00
55757;BME280;41676;44.610;44.078;2023-12-14T19:58:26;101128.28;;;-2.91;100.00
55757;BME280;41676;44.610;44.078;2023-12-14T20:03:27;101120.13;;;-3.04;100.00
55757;BME280;41676;44.610;44.078;2023-12-14T20:08:28;101125.38;;;-2.84;100.00
55757;BME280;41676;44.610;44.078;2023-12-14T20:13:29;101133.03;;;-2.81;100.00
55757;BME280;41676;44.610;44.078;2023-12-14T20:18:30;101110.66;;;-2.85;100.00
55757;BME280;41676;44.610;44.078;2023-12-14T20:23:31;101146.56;;;-2.72;100.00
55757;BME280;41676;44.610;44.078;2023-12-14T20:28:33;101160.16;;;-2.66;100.00
55757;BME280;41676;44.610;44.078;2023-12-14T20:33:33;101174.59;;;-2.59;100.00
55757;BME280;41676;44.610;44.078;2023-12-14T20:38:34;101119.75;;;-2.95;100.00
55757;BME280;41676;44.610;44.078;2023-12-14T20:43:35;101178.84;;;-2.56;100.00
55757;BME280;41676;44.610;44.078;2023-12-14T20:48:36;101173.50;;;-2.53;100.00
55757;BME280;41676;44.610;44.078;2023-12-14T20:53:40;101135.94;;;-2.88;100.00
55757;BME280;41676;44.610;44.078;2023-12-14T20:58:42;101162.59;;;-2.83;100.00
55757;BME280;41676;44.610;44.078;2023-12-14T21:03:43;101151.78;;;-2.94;100.00
55757;BME280;41676;44.610;44.078;2023-12-14T21:08:50;101143.94;;;-2.93;100.00
55757;BME280;41676;44.610;44.078;2023-12-14T21:13:51;101143.28;;;-2.98;100.00
55757;BME280;41676;44.610;44.078;2023-12-14T21:18:52;101154.34;;;-2.93;100.00
55757;BME280;41676;44.610;44.078;2023-12-14T21:23:53;101155.22;;;-2.94;100.00
55757;BME280;41676;44.610;44.078;2023-12-14T21:28:54;101138.19;;;-3.01;100.00
55757;BME280;41676;44.610;44.078;2023-12-14T21:33:55;101150.59;;;-3.08;100.00
55757;BME280;41676;44.610;44.078;2023-12-14T21:38:56;101123.34;;;-3.19;100.00
55757;BME280;41676;44.610;44.078;2023-12-14T21:43:56;101149.31;;;-2.97;100.00
55757;BME280;41676;44.610;44.078;2023-12-14T21:48:57;101160.31;;;-2.91;100.00
55757;BME280;41676;44.610;44.078;2023-12-14T21:53:58;101131.25;;;-3.01;100.00
55757;BME280;41676;44.610;44.078;2023-12-14T21:58:59;101145.41;;;-2.87;100.00
55757;BME280;41676;44.610;44.078;2023-12-14T22:03:59;101136.72;;;-2.86;100.00
55757;BME280;41676;44.610;44.078;2023-12-14T22:09:02;101134.06;;;-2.85;100.00
55757;BME280;41676;44.610;44.078;2023-12-14T22:14:02;101095.69;;;-3.00;100.00
55757;BME280;41676;44.610;44.078;2023-12-14T22:19:03;101135.38;;;-2.74;100.00
55757;BME280;41676;44.610;44.078;2023-12-14T22:24:04;101104.88;;;-2.91;100.00
55757;BME280;41676;44.610;44.078;2023-12-14T22:29:05;101113.84;;;-2.99;100.00
55757;BME280;41676;44.610;44.078;2023-12-14T22:34:06;101120.09;;;-2.82;100.00
55757;BME280;41676;44.610;44.078;2023-12-14T22:39:06;101096.09;;;-2.89;100.00
55757;BME280;41676;44.610;44.078;2023-12-14T22:44:09;101043.88;;;-3.25;100.00
55757;BME280;41676;44.610;44.078;2023-12-14T22:49:09;101105.06;;;-2.76;100.00
55757;BME280;41676;44.610;44.078;2023-12-14T22:54:10;101093.78;;;-2.74;100.00
55757;BME280;41676;44.610;44.078;2023-12-14T22:59:11;101104.44;;;-2.81;100.00
55757;BME280;41676;44.610;44.078;2023-12-14T23:04:12;101115.28;;;-2.71;100.00
55757;BME280;41676;44.610;44.078;2023-12-14T23:09:12;101098.63;;;-2.67;100.00
55757;BME280;41676;44.610;44.078;2023-12-14T23:14:13;101037.28;;;-2.91;100.00
55757;BME280;41676;44.610;44.078;2023-12-14T23:19:14;101022.25;;;-2.85;100.00
55757;BME280;41676;44.610;44.078;2023-12-14T23:24:15;101027.00;;;-2.94;100.00
55757;BME280;41676;44.610;44.078;2023-12-14T23:29:16;101048.59;;;-2.72;100.00
55757;BME280;41676;44.610;44.078;2023-12-14T23:34:16;101060.94;;;-2.57;100.00
55757;BME280;41676;44.610;44.078;2023-12-14T23:39:17;101067.28;;;-2.43;100.00
55757;BME280;41676;44.610;44.078;2023-12-14T23:44:18;101010.03;;;-2.83;100.00
55757;BME280;41676;44.610;44.078;2023-12-14T23:49:19;101062.44;;;-2.51;100.00
55757;BME280;41676;44.610;44.078;2023-12-14T23:54:20;101033.03;;;-2.73;100.00
55757;BME280;41676;44.610;44.078;2023-12-14T23:59:20;101002.94;;;-3.00;100.00
